createdAt,value
2022-07-31T00:01:16.005Z,54.60
2022-07-31T00:03:42.789Z,54.60
2022-07-31T00:06:09.534Z,54.50
2022-07-31T00:08:38.952Z,54.30
2022-07-31T00:11:05.680Z,54.70
2022-07-31T00:13:57.173Z,54.50
2022-07-31T00:16:23.021Z,54.40
2022-07-31T00:18:49.694Z,54.30
2022-07-31T00:21:19.805Z,54.30
2022-07-31T00:23:47.724Z,54.30
2022-07-31T00:26:16.840Z,54.20
2022-07-31T00:28:43.526Z,54.20
2022-07-31T00:31:10.233Z,54.10
2022-07-31T00:33:37.610Z,53.80
2022-07-31T00:36:04.638Z,53.80
2022-07-31T00:38:36.217Z,54.00
2022-07-31T00:41:05.766Z,54.10
2022-07-31T00:43:36.810Z,54.00
2022-07-31T00:46:07.132Z,54.20
2022-07-31T00:48:41.163Z,54.00
2022-07-31T00:51:11.471Z,54.10
2022-07-31T00:53:38.222Z,54.20
2022-07-31T00:56:05.461Z,54.30
2022-07-31T00:58:32.167Z,54.30
2022-07-31T01:00:58.970Z,54.40
2022-07-31T01:03:28.611Z,54.40
2022-07-31T01:05:57.841Z,54.60
2022-07-31T01:08:29.574Z,54.20
2022-07-31T01:11:15.577Z,54.60
2022-07-31T01:13:56.677Z,54.90
2022-07-31T01:16:27.406Z,54.60
2022-07-31T01:18:56.819Z,54.60
2022-07-31T01:21:31.721Z,54.80
2022-07-31T01:24:32.000Z,54.90
2022-07-31T01:27:49.318Z,54.10
2022-07-31T01:30:26.582Z,54.30
2022-07-31T01:33:11.002Z,52.80
2022-07-31T01:35:44.677Z,53.20
2022-07-31T01:38:24.926Z,53.20
2022-07-31T01:41:01.850Z,53.80
2022-07-31T01:43:35.291Z,53.40
2022-07-31T01:46:07.189Z,53.40
2022-07-31T01:48:38.223Z,52.90
2022-07-31T01:51:06.757Z,52.60
2022-07-31T01:53:34.778Z,53.00
2022-07-31T01:56:04.331Z,53.20
2022-07-31T01:58:38.570Z,53.40
2022-07-31T02:01:23.157Z,53.30
2022-07-31T02:03:56.371Z,53.50
2022-07-31T02:06:25.097Z,53.50
2022-07-31T02:08:56.388Z,54.30
2022-07-31T02:11:25.701Z,53.80
2022-07-31T02:13:56.573Z,53.50
2022-07-31T02:16:24.813Z,53.40
2022-07-31T02:19:02.987Z,53.20
2022-07-31T02:21:30.752Z,53.20
2022-07-31T02:24:00.125Z,53.70
2022-07-31T02:26:29.102Z,53.90
2022-07-31T02:28:56.929Z,54.00
2022-07-31T02:31:28.762Z,53.50
2022-07-31T02:34:00.113Z,53.30
2022-07-31T02:36:35.016Z,53.20
2022-07-31T02:39:03.770Z,52.50
2022-07-31T02:41:32.054Z,52.90
2022-07-31T02:43:59.029Z,52.50
2022-07-31T02:46:27.997Z,52.40
2022-07-31T02:48:56.559Z,52.20
2022-07-31T02:51:25.450Z,52.00
2022-07-31T02:53:54.568Z,51.70
2022-07-31T02:56:25.057Z,51.80
2022-07-31T02:58:52.218Z,51.70
2022-07-31T03:01:30.944Z,51.70
2022-07-31T03:03:57.742Z,51.70
2022-07-31T03:06:24.521Z,51.60
2022-07-31T03:08:53.965Z,51.90
2022-07-31T03:11:25.661Z,51.90
2022-07-31T03:13:54.578Z,51.90
2022-07-31T03:16:25.449Z,52.00
2022-07-31T03:18:53.915Z,52.00
2022-07-31T03:21:25.040Z,52.00
2022-07-31T03:23:55.466Z,52.00
2022-07-31T03:26:24.302Z,51.90
2022-07-31T03:28:53.826Z,52.00
2022-07-31T03:31:21.950Z,52.70
2022-07-31T03:33:48.610Z,52.10
2022-07-31T03:36:20.616Z,52.30
2022-07-31T03:38:50.930Z,52.20
2022-07-31T03:41:41.360Z,52.40
2022-07-31T03:44:08.843Z,52.50
2022-07-31T03:46:38.350Z,52.50
2022-07-31T03:49:08.577Z,52.80
2022-07-31T03:51:40.151Z,52.70
2022-07-31T03:54:11.958Z,52.70
2022-07-31T03:56:45.713Z,52.60
2022-07-31T03:59:16.780Z,52.80
2022-07-31T04:01:56.689Z,52.70
2022-07-31T04:04:40.510Z,52.90
2022-07-31T04:07:09.600Z,52.80
2022-07-31T04:09:36.578Z,52.90
2022-07-31T04:12:09.761Z,52.70
2022-07-31T04:14:36.425Z,52.80
2022-07-31T04:17:13.717Z,52.90
2022-07-31T04:19:43.457Z,52.90
2022-07-31T04:22:13.384Z,52.90
2022-07-31T04:24:42.648Z,52.90
2022-07-31T04:27:30.489Z,52.90
2022-07-31T04:30:00.389Z,52.90
2022-07-31T04:32:27.490Z,52.80
2022-07-31T04:35:06.877Z,53.00
2022-07-31T04:37:35.143Z,53.30
2022-07-31T04:40:03.020Z,53.10
2022-07-31T04:42:32.805Z,53.00
2022-07-31T04:45:02.739Z,52.90
2022-07-31T04:47:29.533Z,52.90
2022-07-31T04:50:00.521Z,52.80
2022-07-31T04:52:29.741Z,52.90
2022-07-31T04:55:06.003Z,52.90
2022-07-31T04:57:32.816Z,53.00
2022-07-31T05:00:01.704Z,53.10
2022-07-31T05:02:32.535Z,53.30
2022-07-31T05:05:02.074Z,52.80
2022-07-31T05:07:40.937Z,53.00
2022-07-31T05:10:43.480Z,53.20
2022-07-31T05:13:12.263Z,53.30
2022-07-31T05:15:38.953Z,53.30
2022-07-31T05:18:07.645Z,53.40
2022-07-31T05:21:03.495Z,53.50
2022-07-31T05:23:36.573Z,53.60
2022-07-31T05:26:12.859Z,53.50
2022-07-31T05:28:46.571Z,53.70
2022-07-31T05:31:13.664Z,53.80
2022-07-31T05:33:40.401Z,53.50
2022-07-31T05:36:10.052Z,53.50
2022-07-31T05:38:36.766Z,53.40
2022-07-31T05:41:22.257Z,53.50
2022-07-31T05:44:08.045Z,53.50
2022-07-31T05:46:39.116Z,53.70
2022-07-31T05:49:07.881Z,53.90
2022-07-31T05:51:34.936Z,54.00
2022-07-31T05:54:01.909Z,54.10
2022-07-31T05:56:59.427Z,54.20
2022-07-31T05:59:34.669Z,54.20
2022-07-31T06:02:01.815Z,54.40
2022-07-31T06:04:32.398Z,54.50
2022-07-31T06:06:59.520Z,54.40
2022-07-31T06:09:27.005Z,54.40
2022-07-31T06:11:53.843Z,54.50
2022-07-31T06:14:23.507Z,54.70
2022-07-31T06:17:22.530Z,54.80
2022-07-31T06:19:49.469Z,54.90
2022-07-31T06:22:18.346Z,55.20
2022-07-31T06:24:54.398Z,55.30
2022-07-31T06:27:33.363Z,55.90
2022-07-31T06:30:09.778Z,55.60
2022-07-31T06:32:39.077Z,55.70
2022-07-31T06:35:06.891Z,55.80
2022-07-31T06:37:47.362Z,56.10
2022-07-31T06:40:20.766Z,56.00
2022-07-31T06:43:07.890Z,56.10
2022-07-31T06:46:13.849Z,56.20
2022-07-31T06:48:59.066Z,56.20
2022-07-31T06:51:32.984Z,56.30
2022-07-31T06:54:05.061Z,56.20
2022-07-31T06:56:32.710Z,56.60
2022-07-31T06:59:00.118Z,56.40
2022-07-31T07:01:26.887Z,56.60
2022-07-31T07:03:54.228Z,56.70
2022-07-31T07:06:21.237Z,56.70
2022-07-31T07:08:48.959Z,56.70
2022-07-31T07:11:19.006Z,56.80
2022-07-31T07:13:46.957Z,57.00
2022-07-31T07:16:17.142Z,56.90
2022-07-31T07:18:44.642Z,56.90
2022-07-31T07:21:11.678Z,56.80
2022-07-31T07:23:39.184Z,57.20
2022-07-31T07:26:19.782Z,57.20
2022-07-31T07:28:46.738Z,57.60
2022-07-31T07:31:13.421Z,58.00
2022-07-31T07:33:42.793Z,57.80
2022-07-31T07:36:23.814Z,58.00
2022-07-31T07:39:09.213Z,58.50
2022-07-31T07:41:38.415Z,57.80
2022-07-31T07:44:07.155Z,57.80
2022-07-31T07:46:37.320Z,57.80
2022-07-31T07:49:06.730Z,58.00
2022-07-31T07:51:38.627Z,58.00
2022-07-31T07:54:43.971Z,57.60
2022-07-31T07:57:29.848Z,57.10
2022-07-31T08:00:10.799Z,57.70
2022-07-31T08:02:44.814Z,57.50
2022-07-31T08:05:14.004Z,57.00
2022-07-31T08:07:42.654Z,56.70
2022-07-31T08:10:30.157Z,56.80
2022-07-31T08:13:05.858Z,57.00
2022-07-31T08:15:51.373Z,57.00
2022-07-31T08:18:32.651Z,57.20
2022-07-31T08:20:59.387Z,57.20
2022-07-31T08:23:27.098Z,57.40
2022-07-31T08:25:53.957Z,57.00
2022-07-31T08:28:25.279Z,56.80
2022-07-31T08:30:53.939Z,57.00
2022-07-31T08:33:22.074Z,56.30
2022-07-31T08:35:58.910Z,56.10
2022-07-31T08:38:25.629Z,56.20
2022-07-31T08:41:15.207Z,55.80
2022-07-31T08:44:03.058Z,55.50
2022-07-31T08:46:29.346Z,55.00
2022-07-31T08:48:57.241Z,54.90
2022-07-31T08:51:24.369Z,54.60
2022-07-31T08:54:28.324Z,54.40
2022-07-31T08:56:55.394Z,54.50
2022-07-31T08:59:23.048Z,54.50
2022-07-31T09:01:51.219Z,54.50
2022-07-31T09:04:20.717Z,54.60
2022-07-31T09:06:47.505Z,54.20
2022-07-31T09:09:16.722Z,54.00
2022-07-31T09:11:50.206Z,53.70
2022-07-31T09:14:54.966Z,53.40
2022-07-31T09:17:32.381Z,53.30
2022-07-31T09:20:00.190Z,52.90
2022-07-31T09:22:32.262Z,53.30
2022-07-31T09:25:12.010Z,53.40
2022-07-31T09:27:39.607Z,53.20
2022-07-31T09:30:07.942Z,53.20
2022-07-31T09:32:53.943Z,53.20
2022-07-31T09:35:48.121Z,53.20
2022-07-31T09:38:15.854Z,53.30
2022-07-31T09:41:55.887Z,53.30
2022-07-31T09:44:10.320Z,52.90
2022-07-31T09:46:43.281Z,52.90
2022-07-31T09:49:10.236Z,52.30
2022-07-31T09:51:40.478Z,51.90
2022-07-31T09:54:19.151Z,52.20
2022-07-31T09:57:13.362Z,52.00
2022-07-31T09:59:44.045Z,51.50
2022-07-31T10:02:15.389Z,51.50
2022-07-31T10:04:46.879Z,51.10
2022-07-31T10:07:24.415Z,50.70
2022-07-31T10:10:03.417Z,50.60
2022-07-31T10:12:42.154Z,50.40
2022-07-31T10:15:14.982Z,50.30
2022-07-31T10:17:46.713Z,50.20
2022-07-31T10:20:23.482Z,49.90
2022-07-31T10:23:16.409Z,49.30
2022-07-31T10:25:56.422Z,49.20
2022-07-31T10:28:24.710Z,49.20
2022-07-31T10:30:52.622Z,49.40
2022-07-31T10:33:43.143Z,49.50
2022-07-31T10:36:37.612Z,49.50
2022-07-31T10:39:35.653Z,49.30
2022-07-31T10:42:56.020Z,49.00
2022-07-31T10:45:23.772Z,49.00
2022-07-31T10:48:03.058Z,49.20
2022-07-31T10:51:07.188Z,49.00
2022-07-31T10:54:01.888Z,49.30
2022-07-31T10:57:02.755Z,49.10
2022-07-31T10:59:44.596Z,49.00
2022-07-31T11:02:35.369Z,48.30
2022-07-31T11:05:23.550Z,48.20
2022-07-31T11:08:08.708Z,47.80
2022-07-31T11:10:51.666Z,47.60
2022-07-31T11:13:51.736Z,47.60
2022-07-31T11:16:51.602Z,47.20
2022-07-31T11:19:41.730Z,47.30
2022-07-31T11:22:32.053Z,47.80
2022-07-31T11:25:00.468Z,47.40
2022-07-31T11:27:31.683Z,47.80
2022-07-31T11:30:12.846Z,47.00
2022-07-31T11:32:41.390Z,46.90
2022-07-31T11:35:08.887Z,46.80
2022-07-31T11:37:45.360Z,46.60
2022-07-31T11:40:22.496Z,47.00
2022-07-31T11:43:10.715Z,46.60
2022-07-31T11:45:52.521Z,46.40
2022-07-31T11:48:21.325Z,46.40
2022-07-31T11:50:49.932Z,46.40
2022-07-31T11:53:18.113Z,45.80
2022-07-31T11:55:47.802Z,45.60
2022-07-31T11:58:16.673Z,45.90
2022-07-31T12:00:50.143Z,45.90
2022-07-31T12:03:22.457Z,46.00
2022-07-31T12:05:52.166Z,46.20
2022-07-31T12:08:20.000Z,46.20
2022-07-31T12:10:48.984Z,46.60
2022-07-31T12:13:20.446Z,46.10
2022-07-31T12:16:10.074Z,46.10
2022-07-31T12:18:48.916Z,45.30
2022-07-31T12:21:16.788Z,45.30
2022-07-31T12:23:49.256Z,45.30
2022-07-31T12:26:23.401Z,45.10
2022-07-31T12:28:58.345Z,45.20
2022-07-31T12:31:25.616Z,44.30
2022-07-31T12:33:52.442Z,44.50
2022-07-31T12:36:20.091Z,44.40
2022-07-31T12:38:57.810Z,44.20
2022-07-31T12:41:24.568Z,44.70
2022-07-31T12:43:52.737Z,44.60
2022-07-31T12:46:35.788Z,44.70
2022-07-31T12:49:06.342Z,45.00
2022-07-31T12:51:45.578Z,44.30
2022-07-31T12:54:17.517Z,44.00
2022-07-31T12:56:45.228Z,43.50
2022-07-31T12:59:12.663Z,43.30
2022-07-31T13:01:39.451Z,43.40
2022-07-31T13:04:07.775Z,43.00
2022-07-31T13:06:45.438Z,43.00
2022-07-31T13:09:12.246Z,43.30
2022-07-31T13:11:46.497Z,43.10
2022-07-31T13:14:20.330Z,42.70
2022-07-31T13:16:48.334Z,42.00
2022-07-31T13:19:17.623Z,41.90
2022-07-31T13:21:49.436Z,41.70
2022-07-31T13:24:20.829Z,41.30
2022-07-31T13:26:49.240Z,41.10
2022-07-31T13:29:16.770Z,41.00
2022-07-31T13:31:44.155Z,41.00
2022-07-31T13:34:11.787Z,40.90
2022-07-31T13:36:39.220Z,41.30
2022-07-31T13:39:07.654Z,41.70
2022-07-31T13:41:35.344Z,41.90
2022-07-31T13:44:03.069Z,42.30
2022-07-31T13:46:30.078Z,42.80
2022-07-31T13:48:59.158Z,43.10
2022-07-31T13:51:28.981Z,42.50
2022-07-31T13:53:58.045Z,43.00
2022-07-31T13:56:41.831Z,43.00
2022-07-31T13:59:13.685Z,41.80
2022-07-31T14:02:03.740Z,39.20
2022-07-31T14:04:32.150Z,38.40
2022-07-31T14:07:04.118Z,37.60
2022-07-31T14:09:34.045Z,37.40
2022-07-31T14:12:04.646Z,36.70
2022-07-31T14:14:32.477Z,36.20
2022-07-31T14:16:59.346Z,36.10
2022-07-31T14:19:26.432Z,36.40
2022-07-31T14:21:59.174Z,36.30
2022-07-31T14:24:26.359Z,36.60
2022-07-31T14:26:53.249Z,37.20
2022-07-31T14:29:20.029Z,37.10
2022-07-31T14:31:46.766Z,37.10
2022-07-31T14:34:13.428Z,37.30
2022-07-31T14:36:40.133Z,37.60
2022-07-31T14:39:06.851Z,38.00
2022-07-31T14:41:33.520Z,38.30
2022-07-31T14:44:00.427Z,38.70
2022-07-31T14:46:27.101Z,39.30
2022-07-31T14:48:53.828Z,39.80
2022-07-31T14:51:20.629Z,40.40
2022-07-31T14:53:50.222Z,40.70
2022-07-31T14:56:30.687Z,40.80
2022-07-31T14:59:03.606Z,41.20
2022-07-31T15:01:31.026Z,41.00
2022-07-31T15:03:58.215Z,41.30
2022-07-31T15:06:41.512Z,41.70
2022-07-31T15:09:14.989Z,42.10
2022-07-31T15:11:59.144Z,41.90
2022-07-31T15:14:28.933Z,41.80
2022-07-31T15:16:55.680Z,41.50
2022-07-31T15:19:22.416Z,40.40
2022-07-31T15:22:16.047Z,39.70
2022-07-31T15:24:36.020Z,39.20
2022-07-31T15:27:03.313Z,38.90
2022-07-31T15:30:04.937Z,38.80
2022-07-31T15:32:19.486Z,39.00
2022-07-31T15:34:46.169Z,39.00
2022-07-31T15:37:19.972Z,38.80
2022-07-31T15:40:02.792Z,39.00
2022-07-31T15:42:31.992Z,39.10
2022-07-31T15:44:58.957Z,39.70
2022-07-31T15:47:28.610Z,40.00
2022-07-31T15:49:57.804Z,40.50
2022-07-31T15:52:28.024Z,40.60
2022-07-31T15:54:59.476Z,40.80
2022-07-31T15:57:26.227Z,41.30
2022-07-31T15:59:58.741Z,41.90
2022-07-31T16:02:27.826Z,41.80
2022-07-31T16:05:10.973Z,41.90
2022-07-31T16:08:31.105Z,42.00
2022-07-31T16:10:34.261Z,41.90
2022-07-31T16:13:01.258Z,41.70
2022-07-31T16:15:30.585Z,41.60
2022-07-31T16:18:00.001Z,41.70
2022-07-31T16:20:27.381Z,41.80
2022-07-31T16:23:03.498Z,41.90
2022-07-31T16:25:32.038Z,42.20
2022-07-31T16:28:02.364Z,42.20
2022-07-31T16:30:29.220Z,42.10
2022-07-31T16:32:55.970Z,42.50
2022-07-31T16:35:27.712Z,42.80
2022-07-31T16:37:56.754Z,42.60
2022-07-31T16:40:31.840Z,42.80
2022-07-31T16:43:51.095Z,43.00
2022-07-31T16:45:56.454Z,43.30
2022-07-31T16:48:23.610Z,43.30
2022-07-31T16:50:53.691Z,43.40
2022-07-31T16:54:11.013Z,43.40
2022-07-31T16:56:16.024Z,43.60
2022-07-31T16:58:43.889Z,44.60
2022-07-31T17:01:53.753Z,47.00
2022-07-31T17:04:04.397Z,47.60
2022-07-31T17:06:38.361Z,48.00
2022-07-31T17:09:17.144Z,50.20
2022-07-31T17:11:52.730Z,51.00
2022-07-31T17:14:25.458Z,52.00
2022-07-31T17:16:55.277Z,51.90
2022-07-31T17:19:41.234Z,52.20
2022-07-31T17:22:17.679Z,51.40
2022-07-31T17:24:51.562Z,50.50
2022-07-31T17:27:19.105Z,49.10
2022-07-31T17:29:45.855Z,47.90
2022-07-31T17:32:14.884Z,46.80
2022-07-31T17:34:46.174Z,46.40
2022-07-31T17:37:13.344Z,45.90
2022-07-31T17:39:40.478Z,45.50
2022-07-31T17:42:09.933Z,45.60
2022-07-31T17:44:40.100Z,45.10
2022-07-31T17:47:10.173Z,44.60
2022-07-31T17:49:39.368Z,44.80
2022-07-31T17:52:06.563Z,44.60
2022-07-31T17:54:35.802Z,44.80
2022-07-31T17:57:04.928Z,45.20
2022-07-31T17:59:34.162Z,45.30
2022-07-31T18:02:05.191Z,45.50
2022-07-31T18:04:39.213Z,45.80
2022-07-31T18:07:06.989Z,45.90
2022-07-31T18:09:36.355Z,46.30
2022-07-31T18:12:04.062Z,46.60
2022-07-31T18:14:30.993Z,46.60
2022-07-31T18:16:57.680Z,47.00
2022-07-31T18:19:26.139Z,47.00
2022-07-31T18:21:53.668Z,47.20
2022-07-31T18:24:22.756Z,47.50
2022-07-31T18:26:50.677Z,47.80
2022-07-31T18:29:17.718Z,47.70
2022-07-31T18:31:46.860Z,48.60
2022-07-31T18:34:18.239Z,49.70
2022-07-31T18:36:54.415Z,51.10
2022-07-31T18:39:21.984Z,51.60
2022-07-31T18:41:49.159Z,51.90
2022-07-31T18:44:17.712Z,52.30
2022-07-31T18:46:46.851Z,52.70
2022-07-31T18:51:02.115Z,53.10
2022-07-31T18:52:06.430Z,53.30
2022-07-31T18:54:33.472Z,53.90
2022-07-31T18:57:00.438Z,54.40
2022-07-31T18:59:30.661Z,54.70
2022-07-31T19:02:00.559Z,55.10
2022-07-31T19:04:27.842Z,55.40
2022-07-31T19:06:54.871Z,55.70
2022-07-31T19:09:22.826Z,56.00
2022-07-31T19:11:51.927Z,56.30
2022-07-31T19:14:22.479Z,56.50
2022-07-31T19:16:51.512Z,56.60
2022-07-31T19:19:18.242Z,56.90
2022-07-31T19:21:46.562Z,57.20
2022-07-31T19:24:13.380Z,57.30
2022-07-31T19:26:40.090Z,57.40
2022-07-31T19:29:07.069Z,57.50
2022-07-31T19:31:35.317Z,57.60
2022-07-31T19:34:02.173Z,57.80
2022-07-31T19:36:32.723Z,58.00
2022-07-31T19:38:59.408Z,58.10
2022-07-31T19:41:28.844Z,58.40
2022-07-31T19:43:55.703Z,58.50
2022-07-31T19:46:24.657Z,58.70
2022-07-31T19:48:51.454Z,58.90
2022-07-31T19:51:18.340Z,58.90
2022-07-31T19:53:48.352Z,59.10
2022-07-31T19:56:20.470Z,59.20
2022-07-31T19:58:50.214Z,59.40
2022-07-31T20:01:19.876Z,59.50
2022-07-31T20:03:47.874Z,59.60
2022-07-31T20:06:15.384Z,59.60
2022-07-31T20:08:42.297Z,59.70
2022-07-31T20:11:09.075Z,59.80
2022-07-31T20:13:40.494Z,59.80
2022-07-31T20:16:07.320Z,60.10
2022-07-31T20:18:34.044Z,60.20
2022-07-31T20:21:09.506Z,60.40
2022-07-31T20:23:41.366Z,60.90
2022-07-31T20:26:14.870Z,61.00
2022-07-31T20:28:41.610Z,60.70
2022-07-31T20:31:15.966Z,60.60
2022-07-31T20:33:57.913Z,60.60
2022-07-31T20:36:26.234Z,60.80
2022-07-31T20:38:53.788Z,60.80
2022-07-31T20:41:20.782Z,61.20
2022-07-31T20:43:52.346Z,61.00
2022-07-31T20:46:19.223Z,60.90
2022-07-31T20:48:47.311Z,61.00
2022-07-31T20:51:20.245Z,60.90
2022-07-31T20:53:50.390Z,61.00
2022-07-31T20:56:19.701Z,60.90
2022-07-31T20:58:51.813Z,61.00
2022-07-31T21:01:22.437Z,60.80
2022-07-31T21:03:54.861Z,60.70
2022-07-31T21:06:23.573Z,60.80
2022-07-31T21:08:51.213Z,59.90
2022-07-31T21:11:31.734Z,60.30
2022-07-31T21:14:00.470Z,60.50
2022-07-31T21:16:27.177Z,60.60
2022-07-31T21:18:56.805Z,60.50
2022-07-31T21:21:30.737Z,60.50
2022-07-31T21:24:00.685Z,60.60
2022-07-31T21:26:32.044Z,60.40
2022-07-31T21:29:00.136Z,60.90
2022-07-31T21:31:30.649Z,60.60
2022-07-31T21:34:01.219Z,60.90
2022-07-31T21:36:32.409Z,60.80
2022-07-31T21:38:59.445Z,60.80
2022-07-31T21:41:28.673Z,60.70
2022-07-31T21:43:59.421Z,60.90
2022-07-31T21:46:28.377Z,60.80
2022-07-31T21:48:55.195Z,60.90
2022-07-31T21:51:22.930Z,60.90
2022-07-31T21:53:49.682Z,60.70
2022-07-31T21:56:18.555Z,60.60
2022-07-31T21:58:45.300Z,60.50
2022-07-31T22:01:15.288Z,60.50
2022-07-31T22:03:44.157Z,60.50
2022-07-31T22:06:29.305Z,60.00
2022-07-31T22:08:56.033Z,59.90
2022-07-31T22:11:23.011Z,59.20
2022-07-31T22:13:52.787Z,58.90
2022-07-31T22:16:19.466Z,58.60
2022-07-31T22:18:48.957Z,58.50
2022-07-31T22:21:16.035Z,58.40
2022-07-31T22:23:45.725Z,58.60
2022-07-31T22:26:18.060Z,58.70
2022-07-31T22:28:50.266Z,58.80
2022-07-31T22:31:17.118Z,59.50
2022-07-31T22:33:43.906Z,58.40
2022-07-31T22:36:13.212Z,58.70
2022-07-31T22:38:43.098Z,59.10
2022-07-31T22:41:18.785Z,59.30
2022-07-31T22:44:12.927Z,59.30
2022-07-31T22:46:33.627Z,59.30
2022-07-31T22:49:05.770Z,59.70
2022-07-31T22:51:38.305Z,59.70
2022-07-31T22:54:05.425Z,59.80
2022-07-31T22:56:35.916Z,60.00
2022-07-31T22:59:02.882Z,60.40
2022-07-31T23:01:31.458Z,60.30
2022-07-31T23:03:58.110Z,60.40
2022-07-31T23:06:32.550Z,60.40
2022-07-31T23:09:00.100Z,60.70
2022-07-31T23:11:29.231Z,60.60
2022-07-31T23:13:59.502Z,60.70
2022-07-31T23:16:26.358Z,60.60
2022-07-31T23:18:53.128Z,60.70
2022-07-31T23:21:23.406Z,60.70
2022-07-31T23:23:53.122Z,60.80
2022-07-31T23:26:22.580Z,60.90
2022-07-31T23:28:50.897Z,60.90
2022-07-31T23:31:18.358Z,60.90
2022-07-31T23:33:45.804Z,60.90
2022-07-31T23:36:15.796Z,60.90
2022-07-31T23:38:42.919Z,61.10
2022-07-31T23:41:12.335Z,61.10
2022-07-31T23:43:41.309Z,61.20
2022-07-31T23:46:21.185Z,61.20
2022-07-31T23:48:53.402Z,61.30
2022-07-31T23:51:20.890Z,60.70
2022-07-31T23:53:47.685Z,61.10
2022-07-31T23:56:19.191Z,61.40
2022-07-31T23:58:46.490Z,61.60
